Albany, Kentucky
Current Conditions -  °F | °C
As of 6:18 AM on Tuesday 27 Jan 2015 (Local Time) from KEKQ Reporting Station
Overcast Overcast  
Wind Chill: 30°   Ceiling: 500
Heat Index: 30°   Visibility: 7mi
Dew Point: 30°   Wind: 0mph
Humidity: 100%   Direction: NA
Pressure: 29.96"   Gusts: NA
Location:  36.69°N, 85.13°W
Report Text: KEKQ 271218Z AUTO 00000KT 7SM OVC005 M01/M01 A2996 RMK AO2 OVC V BKN SNE10 P0000
Loading
Personal Weather Stations






























Interactive Weather Map New forecast layout! Learn more

10-Day Weather Forecast

Advertisements
Track Severe Weather on mobile